Time;durP1;ratioP1;P1;durP2;ratioP2;P2;SDS_P1;SDS_P2;PMS_P1;PMS_P2;Temp;Humidity;BMP_temperature;BMP_pressure;BME280_temperature;BME280_humidity;BME280_pressure;Samples;Min_cycle;Max_cycle;Signal;HPM_P1;HPM_P2
2022/05/17 00:00:18;;;;;;;6.03;4.90;;;;;;;11.41;78.14;96734.47;5115109;28;20027;-64
2022/05/17 00:02:43;;;;;;;10.07;5.25;;;;;;;11.40;78.25;96726.69;5115496;28;20385;-67
2022/05/17 00:05:09;;;;;;;6.57;5.10;;;;;;;11.38;78.66;96722.38;5115411;28;20038;-63
2022/05/17 00:07:35;;;;;;;8.18;5.65;;;;;;;11.42;78.95;96727.50;5115378;28;20072;-64
2022/05/17 00:10:01;;;;;;;7.47;5.07;;;;;;;11.35;78.66;96729.50;5115505;28;20028;-65
2022/05/17 00:12:26;;;;;;;11.40;5.65;;;;;;;11.31;78.83;96726.13;5115297;28;20346;-64
2022/05/17 00:14:52;;;;;;;11.07;5.85;;;;;;;11.32;78.74;96722.59;5115203;28;20358;-64
2022/05/17 00:17:18;;;;;;;8.48;6.13;;;;;;;11.32;79.35;96719.16;5115282;28;20023;-62
2022/05/17 00:19:44;;;;;;;10.32;6.80;;;;;;;11.30;79.36;96716.59;5115073;28;20074;-63
2022/05/17 00:22:09;;;;;;;7.45;5.60;;;;;;;11.32;79.67;96724.38;5115054;28;20110;-64
2022/05/17 00:24:35;;;;;;;8.10;6.30;;;;;;;11.33;79.57;96720.84;5115217;28;20054;-64
2022/05/17 00:27:01;;;;;;;13.25;6.47;;;;;;;11.29;79.38;96714.84;5115151;28;20533;-67
2022/05/17 00:29:27;;;;;;;10.18;7.25;;;;;;;11.20;80.10;96712.59;5114929;28;20034;-62
2022/05/17 00:31:52;;;;;;;11.05;7.05;;;;;;;11.14;80.15;96711.09;5114826;28;20385;-63
2022/05/17 00:34:18;;;;;;;6.97;6.28;;;;;;;11.16;80.17;96711.00;5114833;28;20023;-63
2022/05/17 00:36:43;;;;;;;9.15;7.45;;;;;;;11.10;80.47;96710.31;5114900;28;20390;-61
2022/05/17 00:39:09;;;;;;;15.15;7.45;;;;;;;11.11;79.89;96705.97;5114774;28;20026;-64
2022/05/17 00:41:35;;;;;;;11.52;7.72;;;;;;;11.09;80.70;96705.16;5114855;28;20040;-65
2022/05/17 00:47:09;;;;;;;9.82;7.60;;;;;;;11.04;80.94;96704.44;5114971;28;20066;-65
2022/05/17 00:49:45;;;;;;;11.15;7.82;;;;;;;11.01;82.14;96702.81;5114652;28;20031;-62
2022/05/17 00:52:21;;;;;;;9.23;7.72;;;;;;;11.04;82.01;96697.47;5114540;28;20035;-63
2022/05/17 00:54:49;;;;;;;10.13;7.65;;;;;;;10.99;82.74;96689.78;5114466;28;20027;-64
2022/05/17 00:57:44;;;;;;;8.65;7.45;;;;;;;11.01;83.55;96689.72;5114404;28;20146;-64
2022/05/17 01:00:12;;;;;;;11.32;8.10;;;;;;;11.06;83.24;96690.41;5114406;28;20023;-66
2022/05/17 01:02:47;;;;;;;8.52;6.70;;;;;;;11.12;82.75;96692.81;5114490;28;20031;-64
2022/05/17 01:05:14;;;;;;;7.05;6.30;;;;;;;11.19;82.24;96692.56;5114405;28;20035;-61
2022/05/17 01:07:47;;;;;;;8.02;7.22;;;;;;;11.27;82.31;96690.50;5114278;28;20028;-61
2022/05/17 01:10:13;;;;;;;11.48;6.32;;;;;;;11.31;81.83;96688.59;5114263;28;20380;-66
2022/05/17 01:12:40;;;;;;;7.90;7.07;;;;;;;11.42;81.86;96689.06;5113319;28;20026;-62
2022/05/17 01:15:11;;;;;;;7.60;6.82;;;;;;;11.45;81.50;96685.47;5113992;28;20022;-65
2022/05/17 01:17:38;;;;;;;;;;;;;;;11.48;82.47;96683.59;5114619;28;20465;-64
2022/05/17 01:20:07;;;;;;;15.60;7.28;;;;;;;11.44;82.54;96681.16;5113996;28;19955;-63
2022/05/17 01:22:33;;;;;;;9.52;7.22;;;;;;;11.45;82.40;96680.22;5113918;28;20020;-67
2022/05/17 01:24:58;;;;;;;9.48;7.35;;;;;;;11.44;82.30;96679.34;5113868;28;20023;-65
2022/05/17 01:27:49;;;;;;;11.05;7.05;;;;;;;11.42;82.01;96673.34;5114039;28;20024;-65
2022/05/17 01:30:24;;;;;;;9.93;7.82;;;;;;;11.47;81.63;96676.63;5113874;28;20110;-66
2022/05/17 01:32:51;;;;;;;12.35;7.38;;;;;;;11.41;81.25;96673.41;5113929;28;20355;-64
2022/05/17 01:35:18;;;;;;;11.18;7.60;;;;;;;11.32;81.48;96670.22;5113695;28;20104;-65
2022/05/17 01:37:44;;;;;;;10.05;7.30;;;;;;;11.31;81.48;96665.03;5113807;28;20469;-63
2022/05/17 01:40:10;;;;;;;7.75;7.05;;;;;;;11.20;81.58;96666.31;5113964;28;20028;-64
2022/05/17 01:42:36;;;;;;;12.45;7.75;;;;;;;11.19;83.41;96669.00;5113352;28;20067;-66
2022/05/17 01:45:03;;;;;;;7.95;7.25;;;;;;;11.17;83.27;96671.66;5113699;28;20510;-62
2022/05/17 01:47:29;;;;;;;15.23;10.48;;;;;;;11.12;83.30;96666.63;5113632;28;20016;-66
2022/05/17 01:49:55;;;;;;;10.00;7.32;;;;;;;11.06;82.86;96669.47;5113577;28;20022;-64
2022/05/17 01:52:21;;;;;;;9.98;7.53;;;;;;;11.09;83.13;96673.72;5113640;28;20027;-65
2022/05/17 01:54:47;;;;;;;10.63;7.88;;;;;;;11.05;83.16;96667.75;5113390;28;20020;-63
2022/05/17 01:57:13;;;;;;;11.55;7.20;;;;;;;11.06;82.31;96656.38;5113525;28;20049;-66
2022/05/17 01:59:38;;;;;;;7.32;6.63;;;;;;;11.00;82.06;96661.84;5113494;28;20028;-65
2022/05/17 02:02:04;;;;;;;9.70;7.20;;;;;;;10.87;82.44;96651.84;5113477;28;20540;-62
2022/05/17 02:04:30;;;;;;;8.85;7.63;;;;;;;10.90;83.64;96661.34;5113520;28;20103;-66
2022/05/17 02:06:56;;;;;;;8.10;7.13;;;;;;;10.90;83.51;96657.88;5113575;28;20081;-64
2022/05/17 02:09:22;;;;;;;10.38;8.10;;;;;;;10.89;84.17;96650.94;5113326;28;20470;-62
2022/05/17 02:11:47;;;;;;;10.77;7.32;;;;;;;10.93;83.97;96650.75;5113459;28;20031;-66
2022/05/17 02:14:13;;;;;;;9.40;6.43;;;;;;;10.95;82.86;96653.31;5113426;28;20024;-63
2022/05/17 02:16:40;;;;;;;11.13;7.30;;;;;;;10.93;82.68;96649.91;5113428;28;20531;-64
2022/05/17 02:19:06;;;;;;;9.70;7.70;;;;;;;10.92;83.07;96651.66;5113347;28;20168;-65
2022/05/17 02:21:36;;;;;;;8.32;7.47;;;;;;;10.93;83.00;96648.13;5113341;28;20031;-63
2022/05/17 02:24:04;;;;;;;15.82;8.40;;;;;;;10.97;82.56;96651.50;5115778;28;20387;-62
2022/05/17 02:26:30;;;;;;;9.95;7.63;;;;;;;10.99;82.95;96644.44;5117348;28;20034;-65
2022/05/17 02:28:56;;;;;;;8.35;7.65;;;;;;;10.98;82.89;96642.72;5117276;28;20488;-65
2022/05/17 02:31:22;;;;;;;8.30;7.00;;;;;;;10.98;82.91;96648.81;5117206;28;20027;-64
2022/05/17 02:33:48;;;;;;;12.23;8.05;;;;;;;10.94;82.96;96651.59;5117200;28;20016;-64
2022/05/17 02:36:13;;;;;;;9.77;7.60;;;;;;;10.93;82.74;96647.28;5117080;27;20032;-62
2022/05/17 02:38:40;;;;;;;7.80;7.10;;;;;;;10.97;82.63;96647.13;5117399;27;20055;-62
2022/05/17 02:41:06;;;;;;;13.38;6.63;;;;;;;10.99;80.82;96647.91;5117271;28;20461;-67
2022/05/17 02:43:33;;;;;;;7.78;5.97;;;;;;;10.95;80.27;96645.44;5116819;28;20089;-66
2022/05/17 02:45:58;;;;;;;20.20;6.70;;;;;;;10.89;80.11;96643.91;5116978;28;20016;-61
2022/05/17 02:48:24;;;;;;;9.10;6.10;;;;;;;10.86;80.07;96644.03;5116972;27;20032;-67
2022/05/17 02:50:49;;;;;;;8.20;6.07;;;;;;;10.85;80.49;96644.97;5117062;28;20024;-65
2022/05/17 02:53:15;;;;;;;6.68;6.05;;;;;;;10.82;81.07;96640.69;5116864;28;20019;-64
2022/05/17 02:55:41;;;;;;;7.85;6.57;;;;;;;10.88;81.25;96652.69;5116757;28;20032;-63
2022/05/17 02:58:06;;;;;;;8.15;6.57;;;;;;;10.84;81.05;96649.31;5116717;28;20107;-61
2022/05/17 03:00:32;;;;;;;10.75;6.43;;;;;;;10.83;81.25;96652.00;5116755;28;20020;-62
2022/05/17 03:02:58;;;;;;;7.70;6.45;;;;;;;10.77;81.74;96654.88;5116718;28;20038;-66
2022/05/17 03:05:24;;;;;;;9.48;6.97;;;;;;;10.70;81.74;96657.72;5116629;28;20062;-62
2022/05/17 03:07:50;;;;;;;9.07;7.22;;;;;;;10.68;82.07;96662.13;5116686;28;20099;-65
2022/05/17 03:10:15;;;;;;;7.45;6.53;;;;;;;10.68;81.77;96659.50;5116629;28;20448;-66
2022/05/17 03:12:41;;;;;;;9.68;6.25;;;;;;;10.71;81.48;96658.53;5116441;28;20026;-64
2022/05/17 03:15:08;;;;;;;7.78;6.32;;;;;;;10.74;81.70;96655.81;5116487;28;20024;-65
2022/05/17 03:17:33;;;;;;;7.68;6.20;;;;;;;10.76;81.61;96667.09;5116433;28;20019;-66
2022/05/17 03:19:59;;;;;;;11.55;6.15;;;;;;;10.81;81.17;96665.13;5116345;28;20075;-66
2022/05/17 03:22:25;;;;;;;7.55;6.47;;;;;;;10.88;80.76;96663.16;5116335;28;20028;-66
2022/05/17 03:24:51;;;;;;;7.10;6.35;;;;;;;10.92;80.55;96663.88;5116387;28;20012;-64
2022/05/17 03:27:19;;;;;;;6.35;5.72;;;;;;;10.96;80.24;96662.88;5116259;28;20111;-63
2022/05/17 03:29:45;;;;;;;7.90;6.65;;;;;;;10.97;80.14;96662.81;5114936;28;20378;-64
2022/05/17 03:32:11;;;;;;;6.97;5.90;;;;;;;10.96;80.48;96666.34;5116120;28;20027;-63
2022/05/17 03:34:37;;;;;;;7.28;6.40;;;;;;;10.91;81.22;96668.28;5115016;28;20457;-66
2022/05/17 03:37:03;;;;;;;10.23;7.82;;;;;;;10.92;82.17;96661.25;5116102;28;20028;-62
2022/05/17 03:39:29;;;;;;;14.75;7.13;;;;;;;10.99;82.34;96668.84;5115876;28;20019;-65
2022/05/17 03:41:55;;;;;;;9.00;6.90;;;;;;;11.14;82.71;96663.09;5116127;27;20338;-63
2022/05/17 03:44:20;;;;;;;6.53;5.82;;;;;;;11.45;82.28;96667.13;5115758;28;20492;-62
2022/05/17 03:46:46;;;;;;;7.05;6.13;;;;;;;11.83;81.31;96677.81;5115999;28;20026;-62
2022/05/17 03:49:12;;;;;;;7.90;5.70;;;;;;;12.27;80.13;96670.81;5115857;28;20019;-65
2022/05/17 03:51:39;;;;;;;6.95;5.60;;;;;;;12.77;79.70;96666.88;5115699;28;20035;-63
2022/05/17 03:54:07;;;;;;;4.68;4.22;;;;;;;13.30;76.91;96671.53;5115679;28;20035;-64
2022/05/17 03:56:33;;;;;;;9.50;4.40;;;;;;;13.80;74.21;96670.97;5115639;28;20099;-63
2022/05/17 03:58:59;;;;;;;5.30;3.72;;;;;;;14.28;72.59;96676.50;5115557;28;20393;-64
2022/05/17 04:01:25;;;;;;;6.88;4.20;;;;;;;14.76;70.78;96676.69;5115644;28;20023;-64
2022/05/17 04:03:51;;;;;;;6.65;3.60;;;;;;;15.16;69.59;96678.13;5115493;28;20073;-62
2022/05/17 04:06:19;;;;;;;4.68;3.58;;;;;;;15.53;67.61;96683.13;5115532;28;20419;-64
2022/05/17 04:08:45;;;;;;;8.85;3.63;;;;;;;15.86;67.63;96689.25;5115418;28;20024;-61
2022/05/17 04:11:11;;;;;;;5.60;3.35;;;;;;;16.15;66.36;96686.72;5115455;28;20026;-65
2022/05/17 04:13:37;;;;;;;6.90;3.63;;;;;;;16.51;65.65;96682.88;5115307;28;20102;-65
2022/05/17 04:16:04;;;;;;;4.80;3.55;;;;;;;16.80;64.93;96685.53;5115105;28;20469;-63
2022/05/17 04:18:30;;;;;;;4.25;3.35;;;;;;;17.14;63.64;96687.91;5115277;28;20107;-62
2022/05/17 04:21:00;;;;;;;6.65;3.30;;;;;;;17.47;62.70;96679.75;5115199;28;20106;-62
2022/05/17 04:23:27;;;;;;;3.03;2.80;;;;;;;17.84;61.23;96677.34;5115092;28;20543;-62
2022/05/17 04:25:54;;;;;;;3.78;3.35;;;;;;;18.13;60.33;96676.41;5115263;27;20389;-63
2022/05/17 04:28:20;;;;;;;5.65;3.25;;;;;;;18.50;60.33;96675.72;5115063;28;20393;-62
2022/05/17 04:30:46;;;;;;;7.32;3.58;;;;;;;18.75;59.98;96672.25;5114995;28;20023;-64
2022/05/17 04:33:13;;;;;;;5.38;3.17;;;;;;;18.99;59.19;96663.53;5114951;27;20393;-65
2022/05/17 04:35:40;;;;;;;3.05;2.67;;;;;;;19.27;58.79;96674.03;5114797;28;20059;-62
2022/05/17 04:38:07;;;;;;;5.40;3.28;;;;;;;19.62;58.57;96673.28;5114726;28;20019;-63
2022/05/17 04:40:37;;;;;;;4.60;3.08;;;;;;;19.85;58.65;96670.75;5114888;28;20059;-64
2022/05/17 04:43:03;;;;;;;4.68;2.90;;;;;;;20.12;58.57;96680.31;5114545;28;20050;-61
2022/05/17 04:45:28;;;;;;;7.22;2.80;;;;;;;20.48;57.81;96676.78;5114569;28;20431;-62
2022/05/17 04:47:54;;;;;;;10.68;3.15;;;;;;;20.75;56.72;96675.63;5114622;28;20055;-61
2022/05/17 04:50:20;;;;;;;7.97;3.33;;;;;;;21.02;56.07;96683.28;5114593;28;20016;-64
2022/05/17 04:52:48;;;;;;;5.13;3.33;;;;;;;21.18;55.90;96669.63;5114500;28;20370;-64
2022/05/17 04:55:17;;;;;;;4.53;2.80;;;;;;;21.46;56.01;96674.53;5114548;28;20031;-64
2022/05/17 04:57:43;;;;;;;7.78;3.13;;;;;;;21.70;54.20;96673.50;5114373;27;20026;-61
2022/05/17 05:00:13;;;;;;;4.88;2.67;;;;;;;21.78;55.02;96668.47;5114478;28;20028;-63
2022/05/17 05:02:39;;;;;;;3.45;2.92;;;;;;;21.94;55.13;96670.69;5114345;28;20373;-62
2022/05/17 05:05:06;;;;;;;6.57;3.05;;;;;;;22.25;55.60;96677.97;5114531;28;20016;-62
2022/05/17 05:07:32;;;;;;;3.70;2.95;;;;;;;22.51;55.20;96671.41;5114271;28;20480;-64
2022/05/17 05:09:58;;;;;;;5.65;2.67;;;;;;;22.80;54.55;96670.75;5114194;28;20107;-63
2022/05/17 05:12:25;;;;;;;3.85;2.67;;;;;;;23.01;54.91;96668.06;5114181;27;20380;-64
2022/05/17 05:14:51;;;;;;;7.32;3.03;;;;;;;23.31;53.26;96676.16;5113982;28;20028;-63
2022/05/17 05:17:17;;;;;;;5.97;3.70;;;;;;;23.54;52.94;96665.31;5114186;28;20110;-62
2022/05/17 05:19:43;;;;;;;7.05;3.42;;;;;;;23.54;51.41;96671.47;5114045;28;20058;-64
2022/05/17 05:22:09;;;;;;;5.25;4.25;;;;;;;23.72;52.66;96674.34;5113948;28;20102;-63
2022/05/17 05:24:35;;;;;;;5.38;4.03;;;;;;;23.95;52.04;96673.22;5113926;28;20483;-63
2022/05/17 05:27:01;;;;;;;5.10;3.72;;;;;;;24.17;50.82;96677.47;5113991;28;20023;-63
2022/05/17 05:29:26;;;;;;;5.40;3.75;;;;;;;24.35;50.97;96674.94;5113903;28;20024;-62
2022/05/17 05:31:52;;;;;;;11.75;3.95;;;;;;;24.53;49.91;96674.22;5113789;28;20028;-62
2022/05/17 05:34:18;;;;;;;8.63;4.00;;;;;;;24.61;49.41;96671.69;5113776;28;20481;-63
2022/05/17 05:36:46;;;;;;;3.67;3.20;;;;;;;24.78;46.27;96663.91;5113767;28;20031;-62
2022/05/17 05:39:12;;;;;;;10.15;4.10;;;;;;;24.97;47.54;96679.09;5113808;28;20423;-61
2022/05/17 05:41:37;;;;;;;10.90;3.70;;;;;;;25.14;46.99;96675.78;5113550;28;20022;-60
2022/05/17 05:44:04;;;;;;;8.30;3.90;;;;;;;25.36;46.59;96674.53;5113515;28;20051;-63
2022/05/17 05:46:29;;;;;;;5.68;2.97;;;;;;;25.57;46.83;96678.81;5113601;28;20059;-62
2022/05/17 05:48:55;;;;;;;4.05;3.70;;;;;;;25.80;48.68;96670.38;5113654;28;20020;-62
2022/05/17 05:51:22;;;;;;;4.85;3.38;;;;;;;26.01;47.86;96672.78;5113646;28;20066;-62
2022/05/17 05:53:48;;;;;;;6.88;3.40;;;;;;;26.08;46.98;96667.63;5113544;28;20027;-60
2022/05/17 05:56:14;;;;;;;5.22;2.90;;;;;;;26.21;46.73;96672.59;5112178;28;20032;-63
2022/05/17 05:58:42;;;;;;;4.88;3.20;;;;;;;26.34;46.72;96672.25;5113015;28;20031;-60
2022/05/17 06:01:09;;;;;;;8.13;3.33;;;;;;;26.36;46.29;96676.44;5113486;28;20465;-61
2022/05/17 06:03:35;;;;;;;4.95;3.35;;;;;;;26.46;45.24;96673.66;5113488;28;20031;-62
2022/05/17 06:06:03;;;;;;;5.55;3.10;;;;;;;26.67;45.35;96669.78;5113609;28;20024;-62
2022/05/17 06:08:28;;;;;;;4.38;2.88;;;;;;;26.95;45.04;96674.16;5113456;28;20032;-60
2022/05/17 06:10:54;;;;;;;5.80;3.22;;;;;;;27.21;43.55;96668.78;5113425;28;20469;-61
2022/05/17 06:13:20;;;;;;;5.05;3.25;;;;;;;27.49;43.25;96678.47;5113365;28;20389;-60
2022/05/17 06:15:47;;;;;;;3.33;2.88;;;;;;;27.64;42.13;96673.31;5113259;28;20020;-62
2022/05/17 06:18:14;;;;;;;4.93;3.25;;;;;;;27.79;42.41;96673.56;5113453;28;20035;-61
2022/05/17 06:20:40;;;;;;;6.88;3.08;;;;;;;27.92;43.84;96674.91;5113422;28;20059;-63
2022/05/17 06:23:08;;;;;;;4.78;3.42;;;;;;;27.97;43.00;96675.28;5113270;28;20020;-61
2022/05/17 06:25:34;;;;;;;4.55;3.47;;;;;;;28.08;41.63;96668.75;5113248;28;20081;-62
2022/05/17 06:28:00;;;;;;;3.97;3.38;;;;;;;28.21;41.70;96679.00;5113293;28;20469;-62
2022/05/17 06:30:26;;;;;;;3.40;2.85;;;;;;;28.27;42.48;96683.72;5113221;28;20024;-61
2022/05/17 06:32:52;;;;;;;5.80;2.90;;;;;;;28.19;41.98;96678.31;5113182;28;20027;-61
2022/05/17 06:35:19;;;;;;;9.77;3.13;;;;;;;28.42;41.59;96680.38;5113070;28;20472;-62
2022/05/17 06:37:46;;;;;;;4.28;2.83;;;;;;;28.50;42.10;96675.81;5113076;28;20030;-60
2022/05/17 06:40:13;;;;;;;4.85;2.72;;;;;;;28.72;41.74;96676.13;5113101;28;20015;-63
2022/05/17 06:42:39;;;;;;;9.50;3.40;;;;;;;28.99;38.38;96676.78;5112999;28;20354;-62
2022/05/17 06:45:05;;;;;;;5.03;2.78;;;;;;;29.16;39.17;96676.75;5113096;28;20027;-62
2022/05/17 06:47:31;;;;;;;6.22;3.60;;;;;;;29.17;39.45;96681.13;5113088;28;20023;-62
2022/05/17 06:49:56;;;;;;;6.03;3.58;;;;;;;29.18;39.26;96677.41;5112952;28;20031;-60
2022/05/17 06:52:23;;;;;;;5.00;2.97;;;;;;;29.30;39.24;96677.03;5113016;28;20028;-61
2022/05/17 06:54:50;;;;;;;5.82;2.92;;;;;;;29.38;40.19;96672.44;5112979;28;20027;-62
2022/05/17 06:57:17;;;;;;;5.00;3.38;;;;;;;29.45;40.47;96672.59;5113004;28;20047;-62
2022/05/17 06:59:45;;;;;;;4.25;2.65;;;;;;;29.38;41.81;96679.72;5111905;28;20039;-62
2022/05/17 07:02:11;;;;;;;5.18;3.30;;;;;;;29.47;40.33;96678.63;5113048;28;20405;-60
2022/05/17 07:04:38;;;;;;;3.63;3.10;;;;;;;29.46;40.29;96674.28;5112897;28;20422;-60
2022/05/17 07:07:05;;;;;;;9.18;3.00;;;;;;;29.46;39.50;96679.66;5112958;28;20388;-61
2022/05/17 07:09:31;;;;;;;3.92;2.95;;;;;;;29.53;40.05;96674.44;5113025;28;20019;-60
2022/05/17 07:14:42;;;;;;;4.60;3.42;;;;;;;29.87;38.35;96669.72;5116785;28;20042;-62
2022/05/17 07:17:12;;;;;;;5.97;3.42;;;;;;;29.77;37.93;96669.94;5116598;28;20473;-62
2022/05/17 07:19:37;;;;;;;12.32;3.40;;;;;;;29.85;37.99;96675.28;5116422;28;20072;-63
2022/05/17 07:22:05;;;;;;;4.20;3.47;;;;;;;30.06;36.83;96676.50;5116284;28;20031;-62
2022/05/17 07:24:32;;;;;;;3.65;3.10;;;;;;;30.29;37.75;96677.53;5116298;28;20431;-59
2022/05/17 07:27:01;;;;;;;4.82;3.40;;;;;;;30.37;37.39;96681.00;5116354;28;20028;-61
2022/05/17 07:29:27;;;;;;;3.63;3.22;;;;;;;30.31;36.97;96678.22;5116204;28;20073;-63
2022/05/17 07:31:53;;;;;;;7.43;3.58;;;;;;;30.43;38.58;96676.72;5116096;28;20057;-60
2022/05/17 07:34:19;;;;;;;3.85;3.20;;;;;;;30.50;37.51;96672.31;5116067;28;20027;-61
2022/05/17 07:36:45;;;;;;;9.23;3.83;;;;;;;30.50;37.25;96674.16;5116136;28;20031;-63
2022/05/17 07:39:11;;;;;;;6.70;3.60;;;;;;;30.32;38.41;96669.94;5115964;28;20392;-63
2022/05/17 07:41:38;;;;;;;11.10;3.53;;;;;;;30.42;35.26;96663.44;5115986;28;20064;-62
2022/05/17 07:44:04;;;;;;;6.60;3.30;;;;;;;30.64;36.98;96669.84;5115694;28;20044;-61
2022/05/17 07:46:31;;;;;;;8.98;3.53;;;;;;;30.46;37.91;96667.47;5115853;28;20020;-61
2022/05/17 07:48:57;;;;;;;5.95;3.63;;;;;;;30.71;36.48;96659.97;5115738;28;20020;-63
2022/05/17 07:51:23;;;;;;;5.35;3.50;;;;;;;30.94;37.64;96659.09;5115750;28;20042;-63
2022/05/17 07:53:49;;;;;;;7.50;3.90;;;;;;;30.65;35.43;96660.72;5115885;28;20465;-60
2022/05/17 07:56:15;;;;;;;4.00;3.53;;;;;;;30.59;35.42;96664.97;5115746;28;20028;-60
2022/05/17 07:58:42;;;;;;;3.63;3.08;;;;;;;30.62;34.67;96661.94;5115714;28;20020;-64
2022/05/17 08:01:08;;;;;;;4.53;3.67;;;;;;;30.71;39.37;96656.44;5115571;28;20030;-62
2022/05/17 08:03:35;;;;;;;4.25;3.75;;;;;;;30.57;37.53;96650.81;5115547;28;20426;-63
2022/05/17 08:06:01;;;;;;;6.75;3.70;;;;;;;30.55;37.80;96658.25;5115548;28;20015;-63
2022/05/17 08:08:27;;;;;;;6.25;3.55;;;;;;;30.60;36.28;96657.72;5115693;28;20074;-63
2022/05/17 08:10:53;;;;;;;5.85;3.75;;;;;;;30.65;37.34;96652.63;5115513;27;20172;-64
2022/05/17 08:13:21;;;;;;;5.13;3.53;;;;;;;30.81;36.73;96648.94;5115526;28;20043;-63
2022/05/17 08:15:48;;;;;;;7.43;4.15;;;;;;;30.96;38.04;96651.66;5115262;27;20031;-61
2022/05/17 08:18:16;;;;;;;9.18;4.35;;;;;;;30.85;38.64;96650.25;5115223;28;20087;-61
2022/05/17 08:20:43;;;;;;;11.52;4.45;;;;;;;30.84;38.13;96651.28;5114842;28;20016;-64
2022/05/17 08:23:08;;;;;;;7.82;4.10;;;;;;;30.83;33.99;96646.91;5115235;28;20427;-62
2022/05/17 08:28:20;;;;;;;9.55;3.67;;;;;;;30.96;34.17;96648.94;5115439;28;20112;-61
2022/05/17 08:30:47;;;;;;;11.02;3.88;;;;;;;30.95;35.01;96639.19;5115010;28;20084;-60
2022/05/17 08:33:16;;;;;;;8.40;3.70;;;;;;;30.91;32.94;96645.13;5115048;28;20019;-60
2022/05/17 08:36:03;;;;;;;6.93;3.92;;;;;;;30.77;34.57;96643.09;5114869;28;20020;-61
2022/05/17 08:38:33;;;;;;;3.42;3.13;;;;;;;30.71;35.00;96645.63;5114953;28;20058;-61
2022/05/17 08:41:05;;;;;;;5.10;2.85;;;;;;;30.91;32.83;96639.72;5114812;28;20022;-62
2022/05/17 08:43:49;;;;;;;6.63;3.40;;;;;;;30.46;33.01;96635.91;5113225;28;20051;-61
2022/05/17 08:46:36;;;;;;;4.13;3.22;;;;;;;30.30;34.99;96641.44;5114801;28;20042;-62
2022/05/17 08:49:21;;;;;;;7.75;3.53;;;;;;;30.30;35.12;96642.28;5114724;28;20362;-62
2022/05/17 08:52:13;;;;;;;6.90;2.83;;;;;;;30.46;30.54;96635.91;5114675;28;20034;-61
2022/05/17 08:54:50;;;;;;;3.03;2.40;;;;;;;30.26;28.73;96635.59;5114530;28;20031;-62
2022/05/17 08:57:39;;;;;;;5.03;2.20;;;;;;;30.32;31.60;96629.47;5114475;28;20024;-61
2022/05/17 09:00:10;;;;;;;7.75;2.83;;;;;;;30.25;30.71;96626.66;5114546;28;20213;-63
2022/05/17 09:03:13;;;;;;;4.03;2.60;;;;;;;29.88;32.55;96622.88;5114425;28;20118;-61
2022/05/17 09:06:06;;;;;;;3.85;2.45;;;;;;;29.93;31.74;96627.72;5079093;28;20120;-61
2022/05/17 09:08:45;;;;;;;4.68;2.70;;;;;;;29.98;26.92;96623.47;5114258;28;20394;-62
2022/05/17 09:11:26;;;;;;;6.63;2.38;;;;;;;29.94;30.51;96619.47;5114310;28;20481;-60
2022/05/17 09:14:07;;;;;;;4.07;2.35;;;;;;;30.13;29.13;96617.31;5114383;28;20031;-63
2022/05/17 09:16:37;;;;;;;3.38;2.20;;;;;;;30.09;31.36;96616.81;5114147;28;20032;-61
2022/05/17 09:19:04;;;;;;;2.80;2.50;;;;;;;30.18;29.37;96606.84;5114094;28;20051;-62
2022/05/17 09:21:38;;;;;;;6.25;2.45;;;;;;;30.36;29.26;96614.59;5114172;28;20019;-61
2022/05/17 09:24:20;;;;;;;7.82;2.92;;;;;;;30.39;33.26;96622.31;5114108;28;20033;-61
2022/05/17 09:26:52;;;;;;;4.85;2.90;;;;;;;30.13;31.32;96614.63;5114018;28;20473;-63
2022/05/17 09:29:27;;;;;;;3.75;2.85;;;;;;;30.04;32.87;96618.38;5113951;28;20015;-63
2022/05/17 09:31:59;;;;;;;8.32;3.30;;;;;;;29.92;35.56;96608.03;5114023;28;20028;-61
2022/05/17 09:34:37;;;;;;;6.82;4.20;;;;;;;30.05;34.34;96603.88;5113381;28;20024;-62
2022/05/17 09:37:16;;;;;;;6.13;3.53;;;;;;;30.04;35.19;96600.38;5113865;28;20028;-61
2022/05/17 09:39:49;;;;;;;4.55;3.20;;;;;;;29.95;34.26;96598.75;5112780;28;20059;-62
2022/05/17 09:42:36;;;;;;;7.05;2.70;;;;;;;30.08;32.09;96592.72;5113721;28;20065;-61
2022/05/17 09:45:10;;;;;;;4.78;3.10;;;;;;;30.22;34.48;96596.53;5113629;28;20043;-61
2022/05/17 09:47:53;;;;;;;6.32;3.17;;;;;;;30.21;35.04;96597.53;5113709;28;20019;-62
2022/05/17 09:53:06;;;;;;;3.13;2.83;;;;;;;30.04;32.55;96594.13;5113611;28;20035;-62
2022/05/17 09:55:33;;;;;;;3.65;2.97;;;;;;;30.05;32.36;96599.34;5113409;28;20032;-63
2022/05/17 09:58:09;;;;;;;6.18;2.88;;;;;;;30.04;31.60;96592.28;5113637;28;20429;-61
2022/05/17 10:00:41;;;;;;;9.05;3.70;;;;;;;29.98;31.53;96601.91;5113485;28;20031;-63
2022/05/17 10:03:13;;;;;;;6.75;3.28;;;;;;;30.11;31.22;96589.69;5113552;28;20122;-61
2022/05/17 10:05:45;;;;;;;3.42;2.92;;;;;;;30.08;30.87;96585.50;5113428;28;20028;-63
2022/05/17 10:08:14;;;;;;;5.82;2.80;;;;;;;29.91;34.41;96583.97;5113439;28;20027;-60
2022/05/17 10:10:45;;;;;;;5.78;3.20;;;;;;;29.93;31.79;96577.34;5113440;28;20031;-62
2022/05/17 10:13:32;;;;;;;6.95;2.95;;;;;;;29.91;35.10;96576.69;5113461;28;20039;-63
2022/05/17 10:16:07;;;;;;;4.78;2.80;;;;;;;29.98;30.21;96576.81;5113373;28;20056;-61
2022/05/17 10:18:53;;;;;;;4.35;2.63;;;;;;;30.09;29.01;96562.91;5113268;28;20035;-62
2022/05/17 10:21:46;;;;;;;8.13;2.80;;;;;;;30.08;29.80;96557.69;5113291;28;20027;-61
2022/05/17 10:24:31;;;;;;;6.30;2.63;;;;;;;30.09;31.46;96562.03;5113188;28;20036;-61
2022/05/17 10:27:17;;;;;;;5.30;2.60;;;;;;;29.94;30.88;96562.84;5113298;28;20102;-62
2022/05/17 10:29:52;;;;;;;4.00;2.65;;;;;;;30.10;28.54;96571.84;5113265;28;20118;-62
2022/05/17 10:32:35;;;;;;;5.82;2.70;;;;;;;30.09;30.17;96554.81;5113297;28;20111;-60
2022/05/17 10:35:30;;;;;;;6.70;2.55;;;;;;;30.07;29.58;96553.31;5113236;28;20028;-61
2022/05/17 10:38:21;;;;;;;4.03;2.47;;;;;;;29.95;30.32;96556.44;5113205;28;20036;-61
2022/05/17 10:40:52;;;;;;;4.72;2.75;;;;;;;29.68;31.28;96547.91;5113239;28;20020;-60
2022/05/17 10:43:26;;;;;;;8.50;2.95;;;;;;;29.68;31.98;96552.44;5112885;28;20036;-60
2022/05/17 10:46:04;;;;;;;4.43;2.83;;;;;;;29.61;34.88;96549.63;5116914;28;20031;-61
2022/05/17 10:48:36;;;;;;;7.18;3.10;;;;;;;29.79;30.91;96549.31;5117025;28;20069;-61
2022/05/17 10:51:06;;;;;;;5.55;2.80;;;;;;;29.68;31.35;96542.53;5117038;28;20428;-62
2022/05/17 10:53:44;;;;;;;7.50;3.40;;;;;;;29.84;30.19;96532.63;5116896;28;20028;-61
2022/05/17 10:56:50;;;;;;;4.78;2.58;;;;;;;30.08;34.82;96538.81;5116788;28;20039;-61
2022/05/17 10:59:28;;;;;;;5.50;2.90;;;;;;;29.72;30.86;96530.38;5093413;28;20068;-63
2022/05/17 11:02:34;;;;;;;6.35;2.47;;;;;;;29.37;31.21;96529.88;5116898;28;20050;-61
2022/05/17 11:05:18;;;;;;;4.43;2.47;;;;;;;29.43;32.77;96533.75;5116766;28;20024;-62
2022/05/17 11:07:56;;;;;;;3.83;3.08;;;;;;;29.50;31.68;96524.75;5116640;28;20028;-60
2022/05/17 11:10:22;;;;;;;4.53;3.10;;;;;;;29.45;30.53;96515.53;5116601;28;20038;-60
2022/05/17 11:12:57;;;;;;;11.98;2.88;;;;;;;29.24;29.71;96519.72;5116355;28;20377;-62
2022/05/17 11:15:35;;;;;;;5.43;2.85;;;;;;;28.91;32.32;96512.63;5116456;28;20058;-61
2022/05/17 11:18:13;;;;;;;7.35;2.92;;;;;;;29.00;32.22;96516.97;5116334;28;20461;-60
2022/05/17 11:20:52;;;;;;;6.32;2.50;;;;;;;29.08;33.07;96513.38;5116360;28;20027;-62
2022/05/17 11:23:26;;;;;;;5.95;2.75;;;;;;;29.10;31.22;96514.06;5116306;27;20026;-62
2022/05/17 11:25:55;;;;;;;4.57;3.00;;;;;;;29.17;29.46;96511.53;5116300;28;20044;-61
2022/05/17 11:28:42;;;;;;;6.38;3.30;;;;;;;29.40;32.43;96502.59;5115126;28;20106;-61
2022/05/17 11:31:24;;;;;;;3.72;2.97;;;;;;;29.16;31.36;96509.00;5116302;27;20378;-61
2022/05/17 11:33:50;;;;;;;4.75;3.08;;;;;;;29.12;35.33;96495.03;5116132;27;20062;-61
2022/05/17 11:36:31;;;;;;;4.22;2.88;;;;;;;29.13;32.74;96491.31;5115870;28;20028;-61
2022/05/17 11:38:58;;;;;;;4.60;3.35;;;;;;;29.04;33.52;96493.22;5115945;28;20023;-63
2022/05/17 11:41:43;;;;;;;9.13;2.92;;;;;;;29.06;32.89;96488.53;5115987;28;20023;-61
2022/05/17 11:44:23;;;;;;;7.03;3.10;;;;;;;29.21;32.83;96493.97;5115793;28;20374;-62
2022/05/17 11:46:54;;;;;;;5.18;2.80;;;;;;;29.13;30.06;96483.25;5115914;28;20035;-63
2022/05/17 11:49:27;;;;;;;3.53;2.63;;;;;;;29.05;29.56;96477.94;5115843;27;20099;-62
2022/05/17 11:51:59;;;;;;;8.40;2.83;;;;;;;29.06;32.52;96463.44;5115740;28;20020;-61
2022/05/17 11:54:42;;;;;;;6.00;2.95;;;;;;;29.04;30.16;96473.56;5115673;28;20070;-61